DAL1690 KSLC-KLAS
Flight info
| Callsign | DAL1690 |
|---|---|
| Flight time | 1h 0m |
| Altitude | 32000 |
| Route | ARCHZ1 MLF STEWW CHOWW3 |
| Aircraft | A319/M-SDE3FGHIRWY/LB1 |
Departure
| Time | 2026-05-04 03:15 |
|---|---|
| Airport | Salt Lake City International Airport (KSLC) |
Arrival
| Time | 2026-05-04 04:15 |
|---|---|
| Airport | Harry Reid International Airport (KLAS) |
| Time | Latitude | Longitude | Altitude | Speed | Heading |
|---|---|---|---|---|---|
| 2026-05-04 02:15 | 40.78509 | -111.98846 | 4224 ft | 0 kts | 356° |
| 2026-05-04 03:03 | 40.78508 | -111.98846 | 4224 ft | 1 kts | 356° |
| 2026-05-04 03:04 | 40.78493 | -111.98844 | 4224 ft | 2 kts | 356° |
| 2026-05-04 03:04 | 40.78478 | -111.98843 | 4224 ft | 2 kts | 356° |
| 2026-05-04 03:04 | 40.78468 | -111.98841 | 4224 ft | 1 kts | 316° |
| 2026-05-04 03:04 | 40.78463 | -111.98828 | 4224 ft | 1 kts | 262° |
| 2026-05-04 03:05 | 40.78466 | -111.98807 | 4224 ft | 2 kts | 266° |
| 2026-05-04 03:05 | 40.78467 | -111.98795 | 4224 ft | 0 kts | 264° |
| 2026-05-04 03:05 | 40.78465 | -111.98821 | 4224 ft | 2 kts | 264° |
| 2026-05-04 03:05 | 40.78464 | -111.98830 | 4224 ft | 0 kts | 264° |
| 2026-05-04 03:09 | 40.78464 | -111.98837 | 4224 ft | 2 kts | 264° |
| 2026-05-04 03:09 | 40.78460 | -111.98878 | 4224 ft | 6 kts | 264° |
| 2026-05-04 03:10 | 40.78454 | -111.98959 | 4224 ft | 11 kts | 264° |
| 2026-05-04 03:10 | 40.78445 | -111.99082 | 4224 ft | 15 kts | 264° |
| 2026-05-04 03:10 | 40.78435 | -111.99229 | 4224 ft | 16 kts | 264° |
| 2026-05-04 03:10 | 40.78365 | -111.99331 | 4224 ft | 18 kts | 180° |
| 2026-05-04 03:11 | 40.78227 | -111.99316 | 4224 ft | 21 kts | 175° |
| 2026-05-04 03:11 | 40.78065 | -111.99297 | 4224 ft | 23 kts | 175° |
| 2026-05-04 03:11 | 40.77900 | -111.99278 | 4224 ft | 23 kts | 175° |
| 2026-05-04 03:11 | 40.77732 | -111.99258 | 4224 ft | 24 kts | 175° |
| 2026-05-04 03:12 | 40.77566 | -111.99250 | 4226 ft | 22 kts | 195° |
| 2026-05-04 03:12 | 40.77515 | -111.99404 | 4227 ft | 19 kts | 283° |
| 2026-05-04 03:12 | 40.77564 | -111.99555 | 4228 ft | 14 kts | 342° |
| 2026-05-04 03:12 | 40.77598 | -111.99561 | 4228 ft | 0 kts | 355° |
| 2026-05-04 03:14 | 40.77633 | -111.99565 | 4228 ft | 25 kts | 355° |
| 2026-05-04 03:14 | 40.78059 | -111.99612 | 4226 ft | 95 kts | 354° |
| 2026-05-04 03:14 | 40.78947 | -111.99719 | 4225 ft | 153 kts | 355° |
| 2026-05-04 03:15 | 40.80102 | -111.99869 | 4539 ft | 172 kts | 353° |
| 2026-05-04 03:15 | 40.81282 | -112.00087 | 5134 ft | 175 kts | 341° |
| 2026-05-04 03:15 | 40.82248 | -112.01090 | 5758 ft | 179 kts | 300° |
| 2026-05-04 03:15 | 40.82574 | -112.02753 | 6287 ft | 190 kts | 276° |
| 2026-05-04 03:16 | 40.82629 | -112.04630 | 6675 ft | 206 kts | 272° |
| 2026-05-04 03:16 | 40.82634 | -112.06639 | 7015 ft | 223 kts | 271° |
| 2026-05-04 03:16 | 40.82612 | -112.08854 | 7361 ft | 242 kts | 265° |
| 2026-05-04 03:16 | 40.82079 | -112.11161 | 7630 ft | 266 kts | 244° |
| 2026-05-04 03:17 | 40.81125 | -112.13365 | 8334 ft | 272 kts | 240° |
| 2026-05-04 03:17 | 40.80161 | -112.15531 | 8781 ft | 289 kts | 241° |
| 2026-05-04 03:17 | 40.79214 | -112.17780 | 9436 ft | 296 kts | 243° |
| 2026-05-04 03:17 | 40.78211 | -112.20270 | 10299 ft | 298 kts | 243° |
| 2026-05-04 03:18 | 40.77209 | -112.22819 | 10844 ft | 312 kts | 244° |
| 2026-05-04 03:18 | 40.76051 | -112.25478 | 11307 ft | 328 kts | 232° |
| 2026-05-04 03:18 | 40.74186 | -112.27395 | 12036 ft | 335 kts | 205° |
| 2026-05-04 03:18 | 40.72003 | -112.28159 | 12862 ft | 336 kts | 190° |
| 2026-05-04 03:19 | 40.69657 | -112.28604 | 13625 ft | 340 kts | 188° |
| 2026-05-04 03:19 | 40.67247 | -112.29033 | 14334 ft | 345 kts | 188° |
| 2026-05-04 03:19 | 40.64806 | -112.29491 | 15042 ft | 349 kts | 189° |
| 2026-05-04 03:19 | 40.62352 | -112.29975 | 15731 ft | 352 kts | 189° |
| 2026-05-04 03:20 | 40.59826 | -112.30485 | 16415 ft | 356 kts | 189° |
| 2026-05-04 03:20 | 40.57329 | -112.31052 | 17070 ft | 360 kts | 192° |
| 2026-05-04 03:20 | 40.54837 | -112.31840 | 17713 ft | 363 kts | 197° |
| 2026-05-04 03:20 | 40.52314 | -112.32847 | 18320 ft | 368 kts | 198° |
| 2026-05-04 03:21 | 40.49802 | -112.33885 | 18881 ft | 373 kts | 198° |
| 2026-05-04 03:21 | 40.47238 | -112.34945 | 19469 ft | 377 kts | 198° |
| 2026-05-04 03:21 | 40.44866 | -112.35922 | 20004 ft | 380 kts | 198° |
| 2026-05-04 03:21 | 40.42217 | -112.37008 | 20584 ft | 383 kts | 198° |
| 2026-05-04 03:22 | 40.39578 | -112.38087 | 21141 ft | 387 kts | 198° |
| 2026-05-04 03:22 | 40.36928 | -112.39168 | 21682 ft | 391 kts | 198° |
| 2026-05-04 03:22 | 40.34262 | -112.40255 | 22209 ft | 394 kts | 198° |
| 2026-05-04 03:22 | 40.31589 | -112.41344 | 22722 ft | 397 kts | 198° |
| 2026-05-04 03:23 | 40.28880 | -112.42446 | 23227 ft | 401 kts | 198° |
| 2026-05-04 03:23 | 40.26160 | -112.43551 | 23714 ft | 404 kts | 198° |
| 2026-05-04 03:23 | 40.23405 | -112.44669 | 24192 ft | 407 kts | 198° |
| 2026-05-04 03:23 | 40.20621 | -112.45840 | 24656 ft | 410 kts | 200° |
| 2026-05-04 03:24 | 40.17897 | -112.47225 | 25109 ft | 413 kts | 204° |
| 2026-05-04 03:24 | 40.15173 | -112.48919 | 25560 ft | 415 kts | 208° |
| 2026-05-04 03:24 | 40.12568 | -112.50742 | 25984 ft | 418 kts | 209° |
| 2026-05-04 03:24 | 40.09917 | -112.52621 | 26396 ft | 421 kts | 209° |
| 2026-05-04 03:25 | 40.07229 | -112.54524 | 26799 ft | 425 kts | 209° |
| 2026-05-04 03:25 | 40.04533 | -112.56426 | 27191 ft | 428 kts | 209° |
| 2026-05-04 03:25 | 40.01807 | -112.58345 | 27677 ft | 428 kts | 209° |
| 2026-05-04 03:25 | 39.99103 | -112.60243 | 28218 ft | 426 kts | 209° |
| 2026-05-04 03:26 | 39.96397 | -112.62141 | 28737 ft | 425 kts | 209° |
| 2026-05-04 03:26 | 39.93688 | -112.64039 | 29239 ft | 424 kts | 209° |
| 2026-05-04 03:26 | 39.91119 | -112.65839 | 29705 ft | 424 kts | 208° |
| 2026-05-04 03:26 | 39.88723 | -112.67524 | 30122 ft | 423 kts | 208° |
| 2026-05-04 03:27 | 39.86017 | -112.69415 | 30534 ft | 424 kts | 208° |
| 2026-05-04 03:27 | 39.83317 | -112.71297 | 30887 ft | 425 kts | 208° |
| 2026-05-04 03:27 | 39.80608 | -112.73183 | 31235 ft | 427 kts | 208° |
| 2026-05-04 03:27 | 39.77925 | -112.75050 | 31577 ft | 428 kts | 208° |
| 2026-05-04 03:28 | 39.75245 | -112.76914 | 31852 ft | 430 kts | 207° |
| 2026-05-04 03:28 | 39.69626 | -112.80174 | 31896 ft | 431 kts | 199° |
| 2026-05-04 03:29 | 39.63653 | -112.82391 | 31900 ft | 431 kts | 191° |
| 2026-05-04 03:29 | 39.57534 | -112.83549 | 31901 ft | 431 kts | 185° |
| 2026-05-04 03:30 | 39.51358 | -112.84441 | 31901 ft | 431 kts | 185° |
| 2026-05-04 03:30 | 39.45242 | -112.85339 | 31901 ft | 431 kts | 185° |
| 2026-05-04 03:31 | 39.39120 | -112.86248 | 31901 ft | 431 kts | 185° |
| 2026-05-04 03:31 | 39.32994 | -112.87158 | 31901 ft | 431 kts | 185° |
| 2026-05-04 03:32 | 39.26828 | -112.88071 | 31901 ft | 431 kts | 185° |
| 2026-05-04 03:32 | 39.20660 | -112.88986 | 31901 ft | 431 kts | 185° |
| 2026-05-04 03:33 | 39.14499 | -112.89900 | 31902 ft | 431 kts | 185° |
| 2026-05-04 03:33 | 39.08347 | -112.90810 | 31908 ft | 431 kts | 185° |
| 2026-05-04 03:34 | 39.02217 | -112.91711 | 31917 ft | 431 kts | 185° |
| 2026-05-04 03:34 | 38.96086 | -112.92608 | 31925 ft | 428 kts | 186° |
| 2026-05-04 03:35 | 38.90084 | -112.93488 | 31930 ft | 423 kts | 186° |
| 2026-05-04 03:35 | 38.84705 | -112.94273 | 31931 ft | 422 kts | 186° |
| 2026-05-04 03:36 | 38.78765 | -112.95142 | 31932 ft | 422 kts | 186° |
| 2026-05-04 03:36 | 38.72824 | -112.96008 | 31934 ft | 421 kts | 186° |
| 2026-05-04 03:37 | 38.66795 | -112.96886 | 31937 ft | 421 kts | 186° |
| 2026-05-04 03:37 | 38.60828 | -112.97754 | 31938 ft | 421 kts | 186° |
| 2026-05-04 03:38 | 38.54923 | -112.98611 | 31938 ft | 421 kts | 186° |
| 2026-05-04 03:38 | 38.48969 | -112.99472 | 31938 ft | 421 kts | 186° |
| 2026-05-04 03:39 | 38.43010 | -113.00333 | 31938 ft | 421 kts | 186° |
| 2026-05-04 03:39 | 38.37136 | -113.01484 | 31938 ft | 421 kts | 192° |
| 2026-05-04 03:40 | 38.31398 | -113.03545 | 31938 ft | 421 kts | 199° |
| 2026-05-04 03:40 | 38.25791 | -113.06203 | 31938 ft | 420 kts | 200° |
| 2026-05-04 03:41 | 38.20164 | -113.08884 | 31938 ft | 420 kts | 200° |
| 2026-05-04 03:41 | 38.14558 | -113.11544 | 31941 ft | 420 kts | 200° |
| 2026-05-04 03:42 | 38.08900 | -113.14221 | 31948 ft | 420 kts | 200° |
| 2026-05-04 03:42 | 38.03256 | -113.16886 | 31959 ft | 420 kts | 200° |
| 2026-05-04 03:43 | 37.97671 | -113.19518 | 31973 ft | 420 kts | 200° |
| 2026-05-04 03:43 | 37.92043 | -113.22165 | 31987 ft | 420 kts | 200° |
| 2026-05-04 03:44 | 37.86457 | -113.24783 | 31996 ft | 419 kts | 200° |
| 2026-05-04 03:44 | 37.80861 | -113.27396 | 32000 ft | 419 kts | 200° |
| 2026-05-04 03:45 | 37.75234 | -113.30026 | 32002 ft | 419 kts | 200° |
| 2026-05-04 03:45 | 37.69649 | -113.32636 | 32003 ft | 419 kts | 200° |
| 2026-05-04 03:46 | 37.64024 | -113.35260 | 32003 ft | 419 kts | 200° |
| 2026-05-04 03:46 | 37.58463 | -113.37826 | 32000 ft | 419 kts | 197° |
| 2026-05-04 03:46 | 37.55585 | -113.38499 | 32000 ft | 418 kts | 184° |
| 2026-05-04 03:47 | 37.52654 | -113.38677 | 31998 ft | 418 kts | 181° |
| 2026-05-04 03:47 | 37.46841 | -113.38797 | 31984 ft | 418 kts | 180° |
| 2026-05-04 03:48 | 37.40944 | -113.38885 | 31965 ft | 418 kts | 180° |
| 2026-05-04 03:48 | 37.34980 | -113.38972 | 31939 ft | 418 kts | 180° |
| 2026-05-04 03:49 | 37.29056 | -113.39056 | 31911 ft | 418 kts | 180° |
| 2026-05-04 03:49 | 37.23093 | -113.39139 | 31884 ft | 418 kts | 180° |
| 2026-05-04 03:50 | 37.17102 | -113.39221 | 31868 ft | 419 kts | 180° |
| 2026-05-04 03:50 | 37.11095 | -113.39303 | 31861 ft | 419 kts | 180° |
| 2026-05-04 03:51 | 37.05136 | -113.39427 | 31860 ft | 412 kts | 180° |
| 2026-05-04 03:51 | 37.02172 | -113.39497 | 31700 ft | 403 kts | 180° |
| 2026-05-04 03:51 | 36.99299 | -113.39529 | 31297 ft | 397 kts | 181° |
| 2026-05-04 03:51 | 36.96478 | -113.39494 | 30843 ft | 393 kts | 181° |
| 2026-05-04 03:52 | 36.93796 | -113.39392 | 30351 ft | 391 kts | 180° |
| 2026-05-04 03:52 | 36.91026 | -113.39475 | 29703 ft | 389 kts | 191° |
| 2026-05-04 03:52 | 36.88383 | -113.40494 | 28996 ft | 388 kts | 207° |
| 2026-05-04 03:52 | 36.86163 | -113.42454 | 28674 ft | 378 kts | 225° |
| 2026-05-04 03:53 | 36.84576 | -113.45138 | 28426 ft | 370 kts | 242° |
| 2026-05-04 03:53 | 36.83781 | -113.48282 | 27991 ft | 370 kts | 261° |
| 2026-05-04 03:53 | 36.83852 | -113.51573 | 27473 ft | 373 kts | 277° |
| 2026-05-04 03:53 | 36.84393 | -113.54857 | 26973 ft | 372 kts | 281° |
| 2026-05-04 03:54 | 36.85023 | -113.58107 | 26464 ft | 371 kts | 281° |
| 2026-05-04 03:54 | 36.85667 | -113.61342 | 25970 ft | 370 kts | 281° |
| 2026-05-04 03:54 | 36.86304 | -113.64532 | 25492 ft | 368 kts | 281° |
| 2026-05-04 03:54 | 36.86750 | -113.67673 | 24996 ft | 362 kts | 266° |
| 2026-05-04 03:55 | 36.86256 | -113.70662 | 24479 ft | 354 kts | 243° |
| 2026-05-04 03:55 | 36.84854 | -113.73283 | 24024 ft | 347 kts | 223° |
| 2026-05-04 03:55 | 36.83030 | -113.75335 | 23863 ft | 345 kts | 219° |
| 2026-05-04 03:55 | 36.81150 | -113.77345 | 23862 ft | 346 kts | 219° |
| 2026-05-04 03:56 | 36.79254 | -113.79386 | 23554 ft | 348 kts | 219° |
| 2026-05-04 03:56 | 36.77389 | -113.81416 | 23168 ft | 344 kts | 219° |
| 2026-05-04 03:56 | 36.75514 | -113.83469 | 22737 ft | 342 kts | 220° |
| 2026-05-04 03:56 | 36.73689 | -113.85474 | 22312 ft | 340 kts | 220° |
| 2026-05-04 03:57 | 36.71870 | -113.87476 | 21894 ft | 338 kts | 220° |
| 2026-05-04 03:57 | 36.70060 | -113.89471 | 21485 ft | 337 kts | 220° |
| 2026-05-04 03:57 | 36.68253 | -113.91461 | 21087 ft | 335 kts | 220° |
| 2026-05-04 03:57 | 36.66445 | -113.93452 | 20699 ft | 334 kts | 220° |
| 2026-05-04 03:58 | 36.62861 | -113.97398 | 19955 ft | 331 kts | 220° |
| 2026-05-04 03:58 | 36.61092 | -113.99345 | 19565 ft | 329 kts | 220° |
| 2026-05-04 03:58 | 36.59333 | -114.01279 | 19051 ft | 330 kts | 220° |
| 2026-05-04 03:59 | 36.57571 | -114.03213 | 18657 ft | 327 kts | 220° |
| 2026-05-04 03:59 | 36.55824 | -114.05132 | 18257 ft | 325 kts | 220° |
| 2026-05-04 03:59 | 36.54073 | -114.07053 | 17851 ft | 324 kts | 220° |
| 2026-05-04 03:59 | 36.52369 | -114.08922 | 17459 ft | 322 kts | 220° |
| 2026-05-04 04:00 | 36.50641 | -114.10815 | 17069 ft | 321 kts | 220° |
| 2026-05-04 04:00 | 36.48927 | -114.12693 | 16690 ft | 320 kts | 220° |
| 2026-05-04 04:00 | 36.47212 | -114.14571 | 16321 ft | 319 kts | 220° |
| 2026-05-04 04:00 | 36.45500 | -114.16446 | 16076 ft | 317 kts | 220° |
| 2026-05-04 04:01 | 36.43787 | -114.18320 | 16051 ft | 318 kts | 220° |
| 2026-05-04 04:01 | 36.42067 | -114.20200 | 16043 ft | 319 kts | 220° |
| 2026-05-04 04:01 | 36.40375 | -114.22105 | 16036 ft | 319 kts | 223° |
| 2026-05-04 04:01 | 36.38796 | -114.24174 | 16029 ft | 320 kts | 227° |
| 2026-05-04 04:02 | 36.37341 | -114.26389 | 16023 ft | 321 kts | 230° |
| 2026-05-04 04:02 | 36.35902 | -114.28654 | 16017 ft | 321 kts | 230° |
| 2026-05-04 04:02 | 36.34465 | -114.30921 | 16012 ft | 321 kts | 230° |
| 2026-05-04 04:02 | 36.33030 | -114.33178 | 16008 ft | 320 kts | 230° |
| 2026-05-04 04:03 | 36.31611 | -114.35407 | 15826 ft | 316 kts | 230° |
| 2026-05-04 04:03 | 36.30207 | -114.37605 | 15366 ft | 316 kts | 230° |
| 2026-05-04 04:03 | 36.28828 | -114.39762 | 14938 ft | 316 kts | 230° |
| 2026-05-04 04:03 | 36.27432 | -114.41944 | 14542 ft | 315 kts | 230° |
| 2026-05-04 04:04 | 36.26025 | -114.44142 | 14143 ft | 313 kts | 230° |
| 2026-05-04 04:04 | 36.24620 | -114.46326 | 13739 ft | 311 kts | 230° |
| 2026-05-04 04:04 | 36.23221 | -114.48473 | 13336 ft | 310 kts | 230° |
| 2026-05-04 04:04 | 36.21822 | -114.50612 | 12930 ft | 308 kts | 230° |
| 2026-05-04 04:05 | 36.20444 | -114.52721 | 12528 ft | 307 kts | 230° |
| 2026-05-04 04:05 | 36.19054 | -114.54850 | 12119 ft | 305 kts | 230° |
| 2026-05-04 04:05 | 36.17687 | -114.56941 | 11715 ft | 304 kts | 230° |
| 2026-05-04 04:05 | 36.16318 | -114.59036 | 11314 ft | 302 kts | 230° |
| 2026-05-04 04:06 | 36.14964 | -114.61108 | 10916 ft | 300 kts | 230° |
| 2026-05-04 04:06 | 36.13614 | -114.63171 | 10516 ft | 298 kts | 230° |
| 2026-05-04 04:06 | 36.12277 | -114.65214 | 10118 ft | 296 kts | 230° |
| 2026-05-04 04:06 | 36.10956 | -114.67237 | 9724 ft | 294 kts | 230° |
| 2026-05-04 04:07 | 36.09644 | -114.69250 | 9331 ft | 292 kts | 230° |
| 2026-05-04 04:07 | 36.08346 | -114.71236 | 9044 ft | 288 kts | 230° |
| 2026-05-04 04:07 | 36.07273 | -114.73463 | 8993 ft | 292 kts | 253° |
| 2026-05-04 04:07 | 36.07171 | -114.76033 | 8997 ft | 296 kts | 281° |
| 2026-05-04 04:08 | 36.08034 | -114.78412 | 8998 ft | 299 kts | 308° |
| 2026-05-04 04:08 | 36.09537 | -114.80255 | 9006 ft | 299 kts | 319° |
| 2026-05-04 04:08 | 36.11211 | -114.81938 | 9001 ft | 300 kts | 321° |
| 2026-05-04 04:08 | 36.12934 | -114.83610 | 8996 ft | 300 kts | 321° |
| 2026-05-04 04:09 | 36.14607 | -114.85222 | 8841 ft | 295 kts | 321° |
| 2026-05-04 04:09 | 36.16276 | -114.86824 | 8382 ft | 297 kts | 321° |
| 2026-05-04 04:09 | 36.17972 | -114.88446 | 7942 ft | 297 kts | 321° |
| 2026-05-04 04:09 | 36.19647 | -114.90041 | 7543 ft | 295 kts | 321° |
| 2026-05-04 04:10 | 36.21325 | -114.91635 | 7143 ft | 294 kts | 320° |
| 2026-05-04 04:10 | 36.22677 | -114.93499 | 6722 ft | 290 kts | 296° |
| 2026-05-04 04:10 | 36.23253 | -114.95898 | 6323 ft | 283 kts | 270° |
| 2026-05-04 04:10 | 36.22912 | -114.98296 | 5931 ft | 276 kts | 243° |
| 2026-05-04 04:11 | 36.21996 | -115.00005 | 5612 ft | 271 kts | 229° |
| 2026-05-04 04:11 | 36.20904 | -115.02195 | 5269 ft | 269 kts | 253° |
| 2026-05-04 04:11 | 36.20567 | -115.04553 | 5277 ft | 273 kts | 261° |
| 2026-05-04 04:11 | 36.20330 | -115.06927 | 5280 ft | 265 kts | 262° |
| 2026-05-04 04:12 | 36.20121 | -115.09175 | 5289 ft | 249 kts | 262° |
| 2026-05-04 04:12 | 36.19806 | -115.11253 | 5150 ft | 238 kts | 247° |
| 2026-05-04 04:12 | 36.18850 | -115.12907 | 4979 ft | 226 kts | 218° |
| 2026-05-04 04:12 | 36.17535 | -115.13814 | 4903 ft | 210 kts | 197° |
| 2026-05-04 04:13 | 36.16134 | -115.13946 | 4607 ft | 197 kts | 171° |
| 2026-05-04 04:13 | 36.15023 | -115.13563 | 4371 ft | 187 kts | 168° |
| 2026-05-04 04:13 | 36.13732 | -115.13474 | 3946 ft | 182 kts | 189° |
| 2026-05-04 04:13 | 36.12577 | -115.14038 | 3408 ft | 181 kts | 210° |
| 2026-05-04 04:14 | 36.11478 | -115.14786 | 2921 ft | 176 kts | 205° |
| 2026-05-04 04:14 | 36.10359 | -115.15380 | 2428 ft | 172 kts | 206° |
| 2026-05-04 04:14 | 36.09301 | -115.16020 | 2146 ft | 155 kts | 205° |
| 2026-05-04 04:14 | 36.08405 | -115.16533 | 2151 ft | 121 kts | 206° |
| 2026-05-04 04:15 | 36.07788 | -115.16890 | 2178 ft | 70 kts | 206° |
| 2026-05-04 04:15 | 36.07576 | -115.17086 | 2187 ft | 18 kts | 326° |
| 2026-05-04 04:15 | 36.07681 | -115.17081 | 2185 ft | 14 kts | 5° |
| 2026-05-04 04:15 | 36.07760 | -115.17058 | 2183 ft | 0 kts | 23° |
| 2026-05-04 04:16 | 36.07774 | -115.17051 | 2183 ft | 3 kts | 23° |
| 2026-05-04 04:16 | 36.07778 | -115.17048 | 2182 ft | 0 kts | 23° |
| 2026-05-04 04:16 | 36.07780 | -115.17047 | 2182 ft | 1 kts | 23° |
| 2026-05-04 04:17 | 36.07796 | -115.17031 | 2182 ft | 4 kts | 55° |
| 2026-05-04 04:17 | 36.07800 | -115.17018 | 2181 ft | 0 kts | 78° |
| 2026-05-04 04:20 | 36.07802 | -115.17001 | 2181 ft | 5 kts | 86° |
| 2026-05-04 04:21 | 36.07803 | -115.16895 | 2177 ft | 20 kts | 90° |
| 2026-05-04 04:21 | 36.07802 | -115.16676 | 2171 ft | 27 kts | 90° |
| 2026-05-04 04:21 | 36.07803 | -115.16431 | 2163 ft | 29 kts | 90° |
| 2026-05-04 04:21 | 36.07803 | -115.16182 | 2155 ft | 27 kts | 90° |
| 2026-05-04 04:22 | 36.07803 | -115.15962 | 2147 ft | 24 kts | 90° |
| 2026-05-04 04:22 | 36.07803 | -115.15792 | 2143 ft | 23 kts | 90° |
| 2026-05-04 04:22 | 36.07803 | -115.15557 | 2134 ft | 26 kts | 90° |
| 2026-05-04 04:22 | 36.07804 | -115.15313 | 2124 ft | 29 kts | 89° |
| 2026-05-04 04:23 | 36.07848 | -115.15126 | 2116 ft | 22 kts | 38° |
| 2026-05-04 04:23 | 36.07866 | -115.14930 | 2108 ft | 24 kts | 95° |
| 2026-05-04 04:23 | 36.07852 | -115.14720 | 2102 ft | 26 kts | 95° |
| 2026-05-04 04:23 | 36.07837 | -115.14501 | 2095 ft | 23 kts | 95° |
| 2026-05-04 04:24 | 36.07827 | -115.14297 | 2088 ft | 18 kts | 86° |
| 2026-05-04 04:24 | 36.07910 | -115.14205 | 2084 ft | 17 kts | 42° |
| 2026-05-04 04:24 | 36.07989 | -115.14118 | 2080 ft | 10 kts | 39° |
| 2026-05-04 04:24 | 36.08023 | -115.14064 | 2077 ft | 2 kts | 86° |
| 2026-05-04 04:25 | 36.08023 | -115.14057 | 2077 ft | 0 kts | 92° |